Time;durP1;ratioP1;P1;durP2;ratioP2;P2;SDS_P1;SDS_P2;PMS_P1;PMS_P2;Temp;Humidity;BMP_temperature;BMP_pressure;BME280_temperature;BME280_humidity;BME280_pressure;Samples;Min_cycle;Max_cycle;Signal;HPM_P1;HPM_P2
2023/06/15 00:00:42;;;;;;;6.75;4.25;;;;;;;15.42;68.25;101824.56;4863803;29;20036;-79
2023/06/15 00:03:07;;;;;;;7.45;4.00;;;;;;;15.16;69.18;101795.13;4863707;29;20498;-79
2023/06/15 00:05:32;;;;;;;7.57;4.88;;;;;;;15.17;69.14;101807.19;4863562;29;20033;-80
2023/06/15 00:07:58;;;;;;;9.45;4.55;;;;;;;15.24;69.46;101820.63;4863399;29;20069;-79
2023/06/15 00:10:23;;;;;;;5.65;3.85;;;;;;;15.15;70.06;101816.88;4863553;29;20085;-80
2023/06/15 00:12:49;;;;;;;5.90;4.20;;;;;;;15.09;70.05;101801.66;4863607;29;20033;-78
2023/06/15 00:15:15;;;;;;;5.32;4.07;;;;;;;15.05;70.37;101810.59;4863545;29;20040;-79
2023/06/15 00:17:41;;;;;;;7.68;4.40;;;;;;;15.10;70.44;101813.72;4863731;29;20030;-79
2023/06/15 00:20:12;;;;;;;6.30;4.53;;;;;;;15.04;70.16;101811.50;4863303;29;20026;-80
2023/06/15 00:22:38;;;;;;;7.37;4.40;;;;;;;14.98;70.74;101817.13;4863373;29;20438;-78
2023/06/15 00:25:05;;;;;;;8.32;4.20;;;;;;;14.97;70.92;101815.47;4862987;29;20021;-79
2023/06/15 00:27:30;;;;;;;7.05;4.40;;;;;;;14.74;71.17;101800.53;4863508;29;20108;-78
2023/06/15 00:29:56;;;;;;;10.02;4.32;;;;;;;14.82;71.67;101812.09;4863436;29;20427;-79
2023/06/15 00:32:21;;;;;;;5.57;4.32;;;;;;;14.86;71.37;101825.75;4863100;29;20113;-79
2023/06/15 00:34:46;;;;;;;7.70;4.47;;;;;;;14.82;71.56;101821.66;4862984;29;20129;-78
2023/06/15 00:37:12;;;;;;;4.68;4.07;;;;;;;14.78;71.93;101823.63;4862942;29;20057;-78
2023/06/15 00:39:37;;;;;;;7.43;4.28;;;;;;;14.76;71.85;101832.47;4862942;29;20065;-79
2023/06/15 00:42:02;;;;;;;6.85;4.50;;;;;;;14.64;71.89;101811.50;4862906;29;20021;-78
2023/06/15 00:44:28;;;;;;;7.00;4.53;;;;;;;14.74;72.97;101834.31;4862896;29;20072;-78
2023/06/15 00:46:53;;;;;;;5.82;4.47;;;;;;;14.57;72.95;101810.25;4863014;29;20082;-79
2023/06/15 00:49:21;;;;;;;7.40;4.70;;;;;;;14.69;73.07;101831.19;4862737;29;20037;-79
2023/06/15 00:51:46;;;;;;;6.40;4.68;;;;;;;14.47;73.86;101816.97;4862732;29;20511;-78
2023/06/15 00:54:14;;;;;;;6.15;4.25;;;;;;;14.56;74.14;101839.78;4862808;29;20033;-79
2023/06/15 00:56:40;;;;;;;7.85;4.70;;;;;;;14.50;74.28;101839.34;4862716;29;20041;-78
2023/06/15 00:59:06;;;;;;;7.40;4.57;;;;;;;14.44;74.69;101837.91;4862791;29;20474;-79
2023/06/15 01:01:31;;;;;;;6.88;4.93;;;;;;;14.51;73.67;101836.63;4862606;29;20036;-79
2023/06/15 01:03:59;;;;;;;6.50;4.50;;;;;;;14.30;74.53;101807.59;4862713;29;20086;-79
2023/06/15 01:06:31;;;;;;;8.05;5.03;;;;;;;14.49;74.00;101833.31;4861387;29;20034;-79
2023/06/15 01:09:01;;;;;;;8.75;5.63;;;;;;;14.47;74.73;101835.16;4862669;29;20060;-78
2023/06/15 01:11:28;;;;;;;6.53;5.05;;;;;;;14.35;74.20;101800.38;4862930;29;20038;-81
2023/06/15 01:13:55;;;;;;;6.13;4.60;;;;;;;14.40;75.56;101833.84;4862572;29;20034;-78
2023/06/15 01:16:52;;;;;;;7.22;4.57;;;;;;;14.43;74.42;101833.66;4862535;29;20069;-80
2023/06/15 01:19:31;;;;;;;9.20;4.88;;;;;;;14.35;75.30;101836.75;4845263;29;20038;-79
2023/06/15 01:22:41;;;;;;;6.38;4.75;;;;;;;14.30;76.04;101831.00;4862202;29;20047;-79
2023/06/15 01:25:16;;;;;;;8.05;4.82;;;;;;;14.25;76.38;101829.59;4823512;29;20514;-79
2023/06/15 01:27:42;;;;;;;6.40;4.72;;;;;;;14.14;76.79;101827.66;4808198;29;20050;-80
2023/06/15 01:30:09;;;;;;;6.25;4.93;;;;;;;14.16;76.64;101827.56;4823230;29;20034;-79
2023/06/15 01:32:35;;;;;;;7.93;4.90;;;;;;;14.21;75.14;101836.75;4823322;29;20507;-78
2023/06/15 01:35:00;;;;;;;6.80;4.88;;;;;;;14.31;75.73;101840.44;4822999;29;20117;-79
2023/06/15 01:37:26;;;;;;;7.40;5.07;;;;;;;14.30;75.64;101845.75;4823323;29;20511;-79
2023/06/15 01:39:51;;;;;;;11.55;5.55;;;;;;;14.18;76.63;101842.16;4823124;29;20392;-79
2023/06/15 01:42:17;;;;;;;8.57;5.38;;;;;;;14.25;76.23;101855.59;4823157;29;20500;-78
2023/06/15 01:44:42;;;;;;;7.00;5.32;;;;;;;14.19;76.59;101843.81;4823136;29;20054;-79
2023/06/15 01:47:09;;;;;;;7.20;5.30;;;;;;;13.96;75.82;101810.63;4822867;29;20061;-79
2023/06/15 01:49:35;;;;;;;7.60;5.15;;;;;;;14.22;76.29;101846.22;4823135;29;20498;-79
2023/06/15 01:52:01;;;;;;;9.80;5.70;;;;;;;14.23;76.33;101847.88;4822940;29;20498;-79
2023/06/15 01:54:26;;;;;;;7.05;4.93;;;;;;;14.19;76.92;101855.97;4823016;29;20042;-79
2023/06/15 01:56:52;;;;;;;10.23;5.43;;;;;;;14.16;75.92;101837.97;4822956;29;20046;-80
2023/06/15 01:59:17;;;;;;;8.98;5.63;;;;;;;14.23;75.62;101840.09;4822988;29;20443;-79
2023/06/15 02:01:43;;;;;;;7.93;5.18;;;;;;;14.19;75.40;101835.19;4859354;29;20505;-79
2023/06/15 02:04:08;;;;;;;8.50;5.93;;;;;;;14.34;74.87;101848.06;4861976;29;20033;-78
2023/06/15 02:06:33;;;;;;;7.22;5.32;;;;;;;14.31;75.13;101842.22;4861466;29;20030;-78
2023/06/15 02:08:58;;;;;;;7.22;5.28;;;;;;;14.32;75.32;101847.31;4861619;29;20034;-78
2023/06/15 02:11:25;;;;;;;7.32;5.55;;;;;;;14.17;76.35;101818.88;4861657;29;20026;-82
2023/06/15 02:13:50;;;;;;;7.40;5.55;;;;;;;14.25;76.68;101845.19;4861344;29;20390;-78
2023/06/15 02:16:15;;;;;;;8.70;5.60;;;;;;;14.25;76.38;101843.41;4861168;29;20036;-78
2023/06/15 02:18:44;;;;;;;8.80;5.47;;;;;;;14.21;76.66;101844.56;4860984;29;20591;-79
2023/06/15 02:21:10;;;;;;;9.27;5.40;;;;;;;14.10;77.27;101833.16;4861266;29;20025;-82
2023/06/15 02:23:35;;;;;;;8.38;5.47;;;;;;;14.13;77.16;101851.97;4861236;29;20033;-78
2023/06/15 02:26:00;;;;;;;8.00;5.82;;;;;;;14.03;77.83;101851.72;4861194;29;20112;-79
2023/06/15 02:28:25;;;;;;;7.70;6.15;;;;;;;14.05;77.71;101851.63;4861342;29;20033;-79
2023/06/15 02:30:51;;;;;;;8.48;5.93;;;;;;;14.07;77.39;101857.56;4861059;29;20090;-79
2023/06/15 02:33:16;;;;;;;8.32;5.72;;;;;;;14.03;77.24;101851.72;4861025;29;20101;-78
2023/06/15 02:35:41;;;;;;;7.07;5.43;;;;;;;13.90;77.55;101839.56;4861122;29;20041;-78
2023/06/15 02:38:07;;;;;;;8.90;6.13;;;;;;;13.95;77.46;101868.69;4860974;29;20029;-78
2023/06/15 02:40:32;;;;;;;7.72;6.00;;;;;;;13.91;76.86;101847.28;4860846;29;20056;-78
2023/06/15 02:42:57;;;;;;;7.07;5.93;;;;;;;14.01;77.66;101868.31;4861035;29;20056;-79
2023/06/15 02:45:23;;;;;;;8.50;6.55;;;;;;;13.99;77.53;101865.81;4859504;29;20037;-79
2023/06/15 02:47:48;;;;;;;8.30;6.13;;;;;;;13.94;77.98;101861.81;4860694;29;20382;-78
2023/06/15 02:50:13;;;;;;;8.40;6.18;;;;;;;13.90;78.31;101862.94;4861037;29;20048;-78
2023/06/15 02:52:40;;;;;;;8.52;5.65;;;;;;;13.91;78.51;101869.81;4860526;29;20037;-79
2023/06/15 02:55:07;;;;;;;8.35;6.25;;;;;;;13.92;78.55;101872.31;4860839;29;20120;-79
2023/06/15 02:57:32;;;;;;;8.15;6.43;;;;;;;13.81;77.89;101851.34;4860515;29;20113;-79
2023/06/15 02:59:58;;;;;;;11.93;6.60;;;;;;;13.73;77.81;101830.22;4860912;29;20464;-79
2023/06/15 03:02:25;;;;;;;10.13;6.78;;;;;;;13.68;78.40;101827.91;4859339;29;20045;-79
2023/06/15 03:04:51;;;;;;;9.10;6.35;;;;;;;13.91;78.99;101869.81;4860539;29;20509;-78
2023/06/15 03:07:20;;;;;;;7.72;5.88;;;;;;;13.68;79.24;101848.66;4860425;29;20041;-78
2023/06/15 03:09:50;;;;;;;7.35;6.30;;;;;;;13.72;79.54;101868.31;4860506;29;20044;-80
2023/06/15 03:12:16;;;;;;;9.10;6.82;;;;;;;13.76;79.23;101862.03;4860548;29;20057;-79
2023/06/15 03:14:50;;;;;;;6.55;5.60;;;;;;;13.72;79.78;101863.13;4860705;29;20032;-78
2023/06/15 03:17:16;;;;;;;9.15;6.35;;;;;;;13.79;79.22;101866.19;4844812;29;20033;-79
2023/06/15 03:19:47;;;;;;;7.30;6.15;;;;;;;13.47;80.74;101824.00;4860439;29;20026;-79
2023/06/15 03:22:13;;;;;;;9.48;6.25;;;;;;;13.73;80.31;101869.97;4860399;29;20466;-79
2023/06/15 03:24:40;;;;;;;9.23;6.07;;;;;;;13.65;80.84;101868.75;4860391;29;20026;-79
2023/06/15 03:27:06;;;;;;;8.20;6.63;;;;;;;13.64;80.99;101875.72;4860227;29;20391;-78
2023/06/15 03:29:36;;;;;;;8.80;6.72;;;;;;;13.61;81.59;101877.66;4859750;29;20037;-78
2023/06/15 03:32:03;;;;;;;8.65;6.72;;;;;;;13.56;81.02;101861.50;4860262;29;20104;-78
2023/06/15 03:34:29;;;;;;;10.73;6.65;;;;;;;13.66;80.84;101868.66;4860427;29;20030;-79
2023/06/15 03:36:54;;;;;;;8.48;6.57;;;;;;;13.65;81.39;101876.53;4860222;29;20032;-77
2023/06/15 03:39:20;;;;;;;8.00;6.18;;;;;;;13.65;81.74;101872.19;4860118;29;20076;-82
2023/06/15 03:41:45;;;;;;;9.02;7.03;;;;;;;13.46;82.11;101849.06;4860084;29;20049;-79
2023/06/15 03:44:11;;;;;;;9.93;6.95;;;;;;;13.60;82.12;101871.63;4860196;29;20057;-78
2023/06/15 03:46:37;;;;;;;8.32;6.88;;;;;;;13.63;82.01;101873.22;4858795;29;20061;-81
2023/06/15 03:49:02;;;;;;;11.57;7.22;;;;;;;13.65;81.23;101871.34;4860169;29;20382;-79
2023/06/15 03:51:27;;;;;;;11.70;6.80;;;;;;;13.63;80.69;101861.06;4860262;29;20601;-82
2023/06/15 03:53:53;;;;;;;8.13;6.82;;;;;;;13.74;81.04;101866.44;4859811;29;20112;-79
2023/06/15 03:56:18;;;;;;;9.38;7.15;;;;;;;13.75;81.13;101867.28;4860048;29;20026;-78
2023/06/15 03:58:43;;;;;;;9.60;7.32;;;;;;;13.74;81.04;101863.84;4843762;29;20129;-79
2023/06/15 04:01:12;;;;;;;9.88;6.75;;;;;;;13.75;81.67;101869.88;4860047;29;20470;-79
2023/06/15 04:03:38;;;;;;;8.90;6.97;;;;;;;13.66;81.86;101847.06;4858666;29;20086;-79
2023/06/15 04:06:05;;;;;;;11.25;7.00;;;;;;;13.83;81.98;101869.44;4859939;29;20061;-81
2023/06/15 04:08:35;;;;;;;11.30;7.13;;;;;;;13.91;80.81;101875.84;4859995;29;20045;-79
2023/06/15 04:11:01;;;;;;;9.95;7.15;;;;;;;13.92;80.55;101874.91;4860084;29;20025;-78
2023/06/15 04:13:26;;;;;;;10.68;6.50;;;;;;;13.92;81.05;101879.25;4860032;29;20034;-79
2023/06/15 04:15:53;;;;;;;9.57;7.13;;;;;;;13.95;80.09;101855.69;4860037;29;20233;-81
2023/06/15 04:18:19;;;;;;;10.05;7.10;;;;;;;14.10;80.00;101865.16;4858383;29;20098;-79
2023/06/15 04:23:42;;;;;;;10.70;7.35;;;;;;;14.32;78.37;101857.72;5152803;23;20084;-79
2023/06/15 04:26:08;;;;;;;8.50;6.68;;;;;;;14.67;77.81;101885.06;4840391;29;20076;-78
2023/06/15 04:28:35;;;;;;;9.48;7.20;;;;;;;14.79;77.39;101884.28;4841488;29;20026;-78
2023/06/15 04:31:10;;;;;;;8.85;7.53;;;;;;;14.99;76.75;101886.44;4841408;29;20029;-78
2023/06/15 04:33:41;;;;;;;9.40;6.90;;;;;;;15.05;77.29;101887.81;4841441;29;20371;-78
2023/06/15 04:36:07;;;;;;;10.43;7.35;;;;;;;15.20;75.87;101887.63;4841537;29;20026;-77
2023/06/15 04:38:32;;;;;;;9.95;6.88;;;;;;;15.32;75.58;101883.38;4841098;29;20037;-77
2023/06/15 04:40:58;;;;;;;16.38;9.05;;;;;;;15.35;74.70;101864.97;4841921;29;20044;-77
2023/06/15 04:43:23;;;;;;;12.68;7.78;;;;;;;15.64;73.75;101896.09;4844366;29;20135;-77
2023/06/15 04:45:48;;;;;;;19.92;7.75;;;;;;;15.60;73.72;101882.41;4843240;29;20042;-80
2023/06/15 04:48:14;;;;;;;10.85;7.53;;;;;;;15.73;73.12;101895.44;4844481;29;20041;-77
2023/06/15 04:50:39;;;;;;;10.48;8.10;;;;;;;15.69;74.22;101899.19;4844398;29;20038;-77
2023/06/15 04:53:05;;;;;;;13.10;7.60;;;;;;;15.64;74.79;101896.91;4844327;29;20030;-77
2023/06/15 04:55:30;;;;;;;12.07;8.00;;;;;;;15.74;72.58;101886.72;4844520;29;20440;-77
2023/06/15 04:57:55;;;;;;;11.82;8.43;;;;;;;15.95;72.90;101907.84;4844438;29;20132;-77
2023/06/15 05:00:21;;;;;;;10.63;7.60;;;;;;;16.09;71.75;101897.31;4844237;29;20026;-78
2023/06/15 05:02:46;;;;;;;8.68;7.22;;;;;;;16.12;72.38;101873.63;4844324;29;20053;-78
2023/06/15 05:05:12;;;;;;;11.68;8.38;;;;;;;16.64;69.72;101911.69;4844203;29;20473;-79
2023/06/15 05:07:37;;;;;;;10.75;7.68;;;;;;;16.99;68.01;101913.56;4842605;29;20086;-77
2023/06/15 05:10:03;;;;;;;13.50;8.20;;;;;;;17.34;67.35;101911.81;4844146;29;20090;-79
2023/06/15 05:12:29;;;;;;;12.73;8.20;;;;;;;17.52;67.20;101911.38;4844004;29;20049;-77
2023/06/15 05:14:54;;;;;;;15.93;8.75;;;;;;;17.76;66.36;101913.00;4844028;29;20546;-77
2023/06/15 05:17:20;;;;;;;14.93;8.25;;;;;;;18.17;64.06;101915.97;4844122;29;20032;-76
2023/06/15 05:19:45;;;;;;;10.32;8.18;;;;;;;18.53;62.88;101896.59;4843908;29;20394;-78
2023/06/15 05:22:11;;;;;;;12.75;8.00;;;;;;;19.11;60.59;101887.50;4843676;29;20081;-78
2023/06/15 05:24:36;;;;;;;12.52;8.02;;;;;;;19.86;59.17;101907.44;4844056;29;20098;-78
2023/06/15 05:27:02;;;;;;;10.88;7.75;;;;;;;20.73;57.05;101909.53;4843891;29;20038;-79
2023/06/15 05:29:28;;;;;;;11.93;7.93;;;;;;;21.34;53.51;101881.22;4843894;29;20069;-82
2023/06/15 05:31:59;;;;;;;12.10;7.38;;;;;;;22.58;51.27;101906.34;4843814;29;20103;-77
2023/06/15 05:34:25;;;;;;;10.38;7.25;;;;;;;23.60;47.84;101904.13;4843850;29;20034;-78
2023/06/15 05:36:50;;;;;;;10.23;6.63;;;;;;;24.66;45.08;101911.66;4843382;29;20513;-78
2023/06/15 05:39:16;;;;;;;11.68;7.45;;;;;;;25.04;43.20;101887.28;4843702;29;20383;-79
2023/06/15 05:41:41;;;;;;;10.52;7.40;;;;;;;25.52;42.32;101876.81;4843767;29;20030;-79
2023/06/15 05:44:07;;;;;;;9.27;7.25;;;;;;;26.15;41.33;101897.09;4843880;29;20034;-80
2023/06/15 05:46:32;;;;;;;11.10;7.35;;;;;;;26.58;40.42;101917.75;4843749;29;20074;-80
2023/06/15 05:48:57;;;;;;;13.60;7.25;;;;;;;26.97;39.27;101903.56;4843393;29;20090;-84
2023/06/15 05:51:22;;;;;;;10.85;7.05;;;;;;;27.55;37.94;101923.28;4859249;29;20040;-79
2023/06/15 05:53:48;;;;;;;11.13;7.68;;;;;;;27.81;37.47;101922.03;4861640;29;20044;-77
2023/06/15 05:56:13;;;;;;;10.07;7.88;;;;;;;28.22;36.30;101917.88;4862101;29;20064;-80
2023/06/15 05:58:38;;;;;;;12.80;7.72;;;;;;;28.41;36.28;101921.78;4861874;29;20427;-81
2023/06/15 06:01:04;;;;;;;14.20;7.65;;;;;;;28.78;35.63;101919.91;4860345;29;20037;-78
2023/06/15 06:03:29;;;;;;;9.55;7.97;;;;;;;29.28;35.03;101923.44;4861732;29;20026;-79
2023/06/15 06:05:55;;;;;;;12.02;7.93;;;;;;;29.76;34.42;101911.09;4861731;29;20397;-81
2023/06/15 06:08:21;;;;;;;9.15;7.75;;;;;;;30.03;33.83;101919.22;4861330;29;20045;-77
2023/06/15 06:10:47;;;;;;;11.23;7.35;;;;;;;30.24;33.48;101911.94;4861854;29;20026;-79
2023/06/15 06:13:12;;;;;;;14.52;7.10;;;;;;;30.77;32.28;101906.72;4861621;29;20028;-78
2023/06/15 06:15:37;;;;;;;10.43;7.45;;;;;;;30.89;32.27;101914.16;4861658;29;20105;-81
2023/06/15 06:18:04;;;;;;;12.70;7.65;;;;;;;31.31;31.00;101907.56;4861503;29;20037;-76
2023/06/15 06:20:31;;;;;;;11.32;7.75;;;;;;;31.05;31.15;101901.19;4861531;29;20029;-81
2023/06/15 06:22:57;;;;;;;14.68;7.25;;;;;;;31.45;30.32;101909.19;4861273;29;20029;-76
2023/06/15 06:25:22;;;;;;;9.80;7.38;;;;;;;31.45;30.97;101901.16;4861266;29;20056;-76
2023/06/15 06:27:47;;;;;;;10.55;7.80;;;;;;;31.47;31.14;101920.50;4861235;29;20174;-73
2023/06/15 06:30:13;;;;;;;11.85;6.95;;;;;;;32.14;30.43;101915.75;4859918;29;20073;-78
2023/06/15 06:32:38;;;;;;;10.65;8.05;;;;;;;31.89;29.10;101905.81;4861108;29;20033;-78
2023/06/15 06:35:04;;;;;;;11.77;8.10;;;;;;;31.54;30.13;101905.25;4859879;29;20045;-76
2023/06/15 06:37:29;;;;;;;11.75;8.13;;;;;;;32.05;29.51;101909.00;4861018;29;20029;-77
2023/06/15 06:39:54;;;;;;;12.63;8.90;;;;;;;31.72;31.00;101891.25;4861196;29;20545;-74
2023/06/15 06:42:20;;;;;;;12.32;8.10;;;;;;;32.39;29.91;101894.47;4861106;29;20040;-75
2023/06/15 06:44:45;;;;;;;13.60;8.57;;;;;;;33.26;28.09;101904.31;4860990;29;20032;-75
2023/06/15 06:47:10;;;;;;;11.98;7.65;;;;;;;33.13;28.20;101914.31;4861013;29;20034;-73
2023/06/15 06:49:35;;;;;;;12.55;7.95;;;;;;;32.88;28.74;101919.69;4860970;29;20029;-74
2023/06/15 06:52:01;;;;;;;10.88;7.80;;;;;;;33.66;27.67;101919.97;4860967;29;20033;-74
2023/06/15 06:54:26;;;;;;;13.32;7.70;;;;;;;33.63;27.17;101904.38;4860608;29;20082;-77
2023/06/15 06:56:51;;;;;;;12.20;7.90;;;;;;;33.88;26.27;101910.47;4860801;29;20056;-77
2023/06/15 06:59:17;;;;;;;12.05;8.48;;;;;;;34.27;24.87;101907.47;4860975;29;20390;-79
2023/06/15 07:01:43;;;;;;;10.45;6.95;;;;;;;34.18;26.21;101917.69;4860892;29;20025;-75
2023/06/15 07:04:08;;;;;;;11.80;6.68;;;;;;;33.97;27.04;101899.44;4859488;29;20045;-76
2023/06/15 07:06:34;;;;;;;13.55;7.40;;;;;;;34.55;25.61;101912.25;4860651;29;20034;-75
2023/06/15 07:08:59;;;;;;;12.02;7.28;;;;;;;34.38;25.47;101918.28;4860502;29;20050;-74
2023/06/15 07:11:26;;;;;;;10.35;7.15;;;;;;;34.36;26.18;101903.44;4860341;29;20053;-75
2023/06/15 07:13:51;;;;;;;11.60;7.32;;;;;;;34.86;24.77;101911.94;4860628;29;20026;-75
2023/06/15 07:16:17;;;;;;;12.65;8.07;;;;;;;34.20;24.43;101915.59;4843765;29;20453;-74
2023/06/15 07:18:42;;;;;;;11.32;8.23;;;;;;;33.41;26.50;101906.63;4860443;29;20037;-75
2023/06/15 07:21:07;;;;;;;10.95;7.75;;;;;;;33.79;25.48;101905.59;4860535;29;20022;-76
2023/06/15 07:23:33;;;;;;;11.13;7.40;;;;;;;33.64;25.42;101898.78;4860243;29;20030;-75
2023/06/15 07:25:58;;;;;;;11.30;6.55;;;;;;;33.06;25.27;101909.84;4858573;29;20098;-76
2023/06/15 07:28:23;;;;;;;9.52;6.65;;;;;;;33.12;25.63;101926.88;4861114;29;20052;-77
2023/06/15 07:30:49;;;;;;;10.55;6.70;;;;;;;33.26;25.14;101916.88;4860610;29;20474;-80
2023/06/15 07:33:15;;;;;;;11.48;6.78;;;;;;;33.76;25.65;101909.56;4860533;29;20461;-83
2023/06/15 07:35:41;;;;;;;11.70;6.10;;;;;;;34.39;25.06;101916.41;4860397;29;20466;-82
2023/06/15 07:38:06;;;;;;;9.48;5.95;;;;;;;34.70;24.91;101918.81;4860115;29;20089;-84
2023/06/15 07:40:31;;;;;;;11.13;5.80;;;;;;;34.79;23.60;101895.94;4858940;29;20435;-85
2023/06/15 07:42:57;;;;;;;8.82;5.15;;;;;;;33.84;24.74;101927.19;4859813;29;20087;-83
2023/06/15 07:45:22;;;;;;;9.73;5.60;;;;;;;31.70;25.86;101920.03;4860305;29;20034;-85
2023/06/15 07:47:48;;;;;;;10.25;5.80;;;;;;;29.59;30.26;101917.75;4860309;29;20037;-86
2023/06/15 07:50:13;;;;;;;12.48;4.93;;;;;;;28.46;30.05;101921.25;4860236;29;20025;-85
2023/06/15 08:02:59;;;;;;;9.75;5.80;;;;;;;25.98;35.97;101894.56;5039883;23;20056;-80
2023/06/15 08:05:24;;;;;;;8.85;5.15;;;;;;;25.78;36.25;101919.75;4860249;29;20246;-82
2023/06/15 08:07:50;;;;;;;9.25;4.70;;;;;;;25.45;36.33;101922.44;4865485;29;20120;-80
2023/06/15 08:10:15;;;;;;;11.57;5.72;;;;;;;25.38;36.49;101924.13;4878146;29;20119;-82
2023/06/15 08:12:40;;;;;;;15.75;6.13;;;;;;;25.11;36.76;101927.91;4878885;29;20043;-81
2023/06/15 08:15:06;;;;;;;8.75;4.13;;;;;;;25.17;37.15;101924.63;4878578;29;20548;-78
2023/06/15 08:17:31;;;;;;;8.85;3.92;;;;;;;25.49;36.44;101927.41;4880353;29;20541;-84
2023/06/15 08:19:57;;;;;;;9.60;4.18;;;;;;;25.67;36.59;101922.75;4882756;29;20029;-87
2023/06/15 08:22:22;;;;;;;9.15;4.00;;;;;;;25.74;36.77;101927.19;4882454;29;20556;-85
2023/06/15 08:24:47;;;;;;;8.60;4.38;;;;;;;25.92;35.70;101921.69;4881671;29;20060;-84
2023/06/15 08:27:14;;;;;;;10.52;5.13;;;;;;;26.09;36.59;101926.94;4881923;29;20153;-82
2023/06/15 08:29:48;;;;;;;8.93;5.28;;;;;;;26.06;36.27;101928.09;4881999;29;20080;-86
2023/06/15 08:32:13;;;;;;;8.40;5.07;;;;;;;25.95;35.73;101929.28;4881933;29;20028;-82
2023/06/15 08:34:42;;;;;;;9.77;4.97;;;;;;;25.77;34.69;101925.22;4880146;29;20189;-81
2023/06/15 08:37:09;;;;;;;9.73;4.50;;;;;;;25.65;35.46;101928.19;4881733;29;20043;-82
2023/06/15 08:39:35;;;;;;;8.45;4.30;;;;;;;25.65;35.66;101916.78;4881664;29;20366;-81
2023/06/15 08:42:02;;;;;;;8.40;4.45;;;;;;;25.42;34.58;101911.38;4881879;29;20030;-81
2023/06/15 08:44:29;;;;;;;7.30;4.00;;;;;;;25.39;35.40;101912.53;4881715;29;20594;-83
2023/06/15 08:46:56;;;;;;;6.18;3.80;;;;;;;25.44;34.99;101923.41;4881610;29;20433;-81
2023/06/15 08:49:26;;;;;;;5.30;3.42;;;;;;;25.11;33.10;101896.19;4881630;29;20429;-81
2023/06/15 08:51:54;;;;;;;7.07;3.50;;;;;;;25.34;34.44;101919.31;4881536;29;20109;-80
2023/06/15 08:54:21;;;;;;;7.68;3.75;;;;;;;25.22;34.60;101916.19;4880072;29;20454;-80
2023/06/15 08:56:46;;;;;;;5.47;3.80;;;;;;;25.06;33.98;101917.00;4881479;29;20357;-78
2023/06/15 08:59:12;;;;;;;7.82;3.53;;;;;;;25.05;33.84;101923.28;4880162;29;20044;-78
2023/06/15 09:01:43;;;;;;;8.48;3.35;;;;;;;25.02;34.89;101910.41;4881398;29;20045;-76
2023/06/15 09:04:09;;;;;;;5.97;3.47;;;;;;;25.25;34.52;101920.31;4880993;29;20048;-77
2023/06/15 09:06:35;;;;;;;9.30;4.03;;;;;;;25.30;36.15;101902.97;4880970;29;20077;-77
2023/06/15 09:09:03;;;;;;;9.73;3.70;;;;;;;25.68;33.86;101922.56;4881208;29;20370;-76
2023/06/15 09:11:28;;;;;;;8.80;3.70;;;;;;;25.56;34.04;101915.97;4881057;29;20081;-76
2023/06/15 09:13:54;;;;;;;9.63;4.10;;;;;;;25.37;33.91;101917.19;4881211;29;20032;-77
2023/06/15 09:16:19;;;;;;;5.57;3.22;;;;;;;25.19;35.50;101891.91;4881053;29;20088;-76
2023/06/15 09:18:46;;;;;;;7.25;4.00;;;;;;;25.40;33.92;101919.47;4881045;29;20040;-76
2023/06/15 09:21:17;;;;;;;8.02;3.70;;;;;;;25.53;35.14;101918.13;4880754;29;20025;-74
2023/06/15 09:23:44;;;;;;;7.43;3.92;;;;;;;25.33;33.92;101896.50;4880723;29;20508;-77
2023/06/15 09:26:21;;;;;;;10.40;3.90;;;;;;;25.28;34.44;101904.94;4880844;29;20362;-77
2023/06/15 09:28:46;;;;;;;7.70;3.72;;;;;;;25.26;34.48;101890.22;4879729;29;20112;-75
2023/06/15 09:31:30;;;;;;;7.43;3.70;;;;;;;25.61;34.49;101904.88;4880889;29;20108;-74
2023/06/15 09:34:10;;;;;;;6.05;3.60;;;;;;;25.72;34.71;101905.38;4880492;29;20025;-77
2023/06/15 09:36:50;;;;;;;9.10;3.60;;;;;;;25.69;32.59;101915.47;4880671;29;20044;-76
2023/06/15 09:39:22;;;;;;;5.63;3.47;;;;;;;25.58;34.02;101910.53;4880668;29;20084;-74
2023/06/15 09:41:51;;;;;;;8.05;3.38;;;;;;;25.92;33.60;101910.28;4880625;29;20112;-75
2023/06/15 09:44:20;;;;;;;8.43;3.70;;;;;;;25.91;32.64;101888.28;4880518;29;20108;-76
2023/06/15 09:46:48;;;;;;;8.00;3.58;;;;;;;26.08;32.38;101893.50;4880227;29;20037;-81
2023/06/15 09:49:21;;;;;;;8.13;3.92;;;;;;;26.25;32.36;101890.63;4863895;29;20029;-76
2023/06/15 09:51:48;;;;;;;8.65;4.35;;;;;;;26.05;32.90;101907.06;4879225;29;20068;-76
2023/06/15 09:54:17;;;;;;;5.60;3.78;;;;;;;26.06;32.12;101904.28;4880459;29;20427;-81
2023/06/15 09:56:44;;;;;;;7.15;3.97;;;;;;;26.26;31.92;101894.09;4880323;29;20033;-83
2023/06/15 09:59:10;;;;;;;10.15;3.97;;;;;;;26.35;32.84;101893.06;4880422;29;20029;-83
2023/06/15 10:01:37;;;;;;;7.90;4.28;;;;;;;26.53;32.84;101906.84;4880161;29;20460;-81
2023/06/15 10:04:03;;;;;;;7.45;3.85;;;;;;;26.53;31.36;101883.00;4880186;29;20137;-86
2023/06/15 10:06:33;;;;;;;9.90;3.88;;;;;;;26.71;31.97;101900.47;4880266;29;20033;-85
2023/06/15 10:09:00;;;;;;;7.07;4.32;;;;;;;26.49;31.51;101902.09;4880298;29;20033;-85
2023/06/15 10:11:27;;;;;;;7.32;3.88;;;;;;;26.01;31.51;101874.84;4880094;29;20173;-81
2023/06/15 10:14:00;;;;;;;7.10;3.80;;;;;;;26.15;32.63;101907.69;4880161;29;20435;-86
2023/06/15 10:16:27;;;;;;;6.22;3.97;;;;;;;26.27;32.35;101906.34;4880341;29;20040;-86
2023/06/15 10:19:01;;;;;;;7.68;4.18;;;;;;;26.52;33.63;101905.22;4880244;29;20081;-83
2023/06/15 10:21:29;;;;;;;7.18;3.42;;;;;;;26.81;32.30;101899.22;4879960;29;20389;-83
2023/06/15 10:24:00;;;;;;;7.95;3.92;;;;;;;26.94;30.87;101892.47;4880019;29;20029;-80
2023/06/15 10:26:25;;;;;;;7.72;4.03;;;;;;;26.85;32.37;101900.53;4879736;29;20456;-83
2023/06/15 10:28:59;;;;;;;7.13;3.97;;;;;;;26.64;32.12;101884.44;4879750;29;20128;-80
2023/06/15 10:31:35;;;;;;;7.03;4.00;;;;;;;26.56;31.26;101900.41;4879636;29;20480;-82
2023/06/15 10:34:03;;;;;;;7.10;3.92;;;;;;;26.30;32.30;101909.44;4879892;29;20071;-81
2023/06/15 10:36:41;;;;;;;6.75;3.78;;;;;;;26.30;31.66;101906.81;4879763;29;20039;-82
2023/06/15 10:39:32;;;;;;;6.80;3.75;;;;;;;26.57;32.11;101897.56;4878024;29;20077;-77
2023/06/15 10:41:58;;;;;;;7.65;3.85;;;;;;;26.71;31.70;101882.72;4880180;29;20028;-82
2023/06/15 10:44:33;;;;;;;7.25;3.63;;;;;;;27.12;32.00;101904.44;4878029;29;20392;-81
2023/06/15 10:47:10;;;;;;;8.90;4.00;;;;;;;27.39;31.32;101904.88;4878097;29;20116;-80
2023/06/15 10:49:36;;;;;;;8.77;4.03;;;;;;;27.56;31.42;101900.25;4879411;29;20025;-78
2023/06/15 10:52:05;;;;;;;7.97;3.75;;;;;;;27.47;30.86;101894.19;4879335;29;20032;-76
2023/06/15 10:54:31;;;;;;;9.65;4.47;;;;;;;27.47;30.36;101894.19;4879391;29;20021;-77
2023/06/15 10:57:00;;;;;;;8.70;3.50;;;;;;;27.29;31.61;101897.19;4879312;29;20093;-77
2023/06/15 10:59:49;;;;;;;6.82;4.10;;;;;;;27.10;31.21;101903.81;4879008;29;20039;-77
2023/06/15 11:02:31;;;;;;;4.90;3.40;;;;;;;26.85;32.36;101899.69;4879243;29;20541;-76
2023/06/15 11:05:03;;;;;;;8.73;3.40;;;;;;;26.83;31.74;101896.38;4879087;29;20029;-76
2023/06/15 11:07:32;;;;;;;10.55;3.70;;;;;;;26.42;31.68;101880.78;4879142;29;20043;-77
2023/06/15 11:10:00;;;;;;;7.63;4.10;;;;;;;26.17;32.82;101901.25;4879021;29;20161;-81
2023/06/15 11:12:33;;;;;;;7.43;3.80;;;;;;;26.05;33.01;101902.59;4878840;29;20481;-75
2023/06/15 11:15:02;;;;;;;7.45;3.70;;;;;;;25.79;32.27;101897.59;4878945;29;20037;-74
2023/06/15 11:17:27;;;;;;;9.40;3.90;;;;;;;25.71;32.87;101897.63;4878935;29;20033;-76
2023/06/15 11:19:52;;;;;;;7.45;3.70;;;;;;;25.73;34.60;101893.78;4879154;29;20037;-76
2023/06/15 11:22:27;;;;;;;9.07;4.45;;;;;;;25.79;33.03;101884.38;4879037;29;20489;-78
2023/06/15 11:24:55;;;;;;;6.68;3.85;;;;;;;25.94;32.60;101884.47;4879198;29;20029;-77
2023/06/15 11:27:22;;;;;;;8.02;3.97;;;;;;;25.89;32.86;101879.69;4878681;29;20065;-81
2023/06/15 11:29:55;;;;;;;6.63;3.33;;;;;;;26.19;33.73;101890.47;4877453;29;20035;-82
2023/06/15 11:32:27;;;;;;;7.72;3.83;;;;;;;26.44;33.31;101889.34;4879059;29;20060;-79
2023/06/15 11:35:00;;;;;;;5.97;3.60;;;;;;;26.39;32.08;101888.25;4878900;29;20029;-82